sensor_id;sensor_type;location;lat;lon;timestamp;pressure;altitude;pressure_sealevel;temperature;humidity
81997;BME280;71500;50.806;8.774;2024-03-25T00:01:14;98659.78;;;6.88;64.65
81997;BME280;71500;50.806;8.774;2024-03-25T00:03:52;98658.47;;;6.87;64.65
81997;BME280;71500;50.806;8.774;2024-03-25T00:06:29;98657.08;;;6.85;64.42
81997;BME280;71500;50.806;8.774;2024-03-25T00:09:29;98662.70;;;6.83;64.21
81997;BME280;71500;50.806;8.774;2024-03-25T00:12:07;98660.26;;;6.77;64.22
81997;BME280;71500;50.806;8.774;2024-03-25T00:14:48;98660.20;;;6.74;64.33
81997;BME280;71500;50.806;8.774;2024-03-25T00:17:25;98666.98;;;6.73;64.26
81997;BME280;71500;50.806;8.774;2024-03-25T00:20:03;98667.95;;;6.72;64.48
81997;BME280;71500;50.806;8.774;2024-03-25T00:23:07;98660.27;;;6.75;64.66
81997;BME280;71500;50.806;8.774;2024-03-25T00:25:44;98662.15;;;6.72;64.47
81997;BME280;71500;50.806;8.774;2024-03-25T00:28:21;98661.52;;;6.69;64.51
81997;BME280;71500;50.806;8.774;2024-03-25T00:30:59;98672.84;;;6.69;64.84
81997;BME280;71500;50.806;8.774;2024-03-25T00:33:36;98665.09;;;6.68;64.97
81997;BME280;71500;50.806;8.774;2024-03-25T00:36:14;98665.85;;;6.68;65.08
81997;BME280;71500;50.806;8.774;2024-03-25T00:39:13;98669.41;;;6.69;65.20
81997;BME280;71500;50.806;8.774;2024-03-25T00:41:51;98668.63;;;6.67;65.30
81997;BME280;71500;50.806;8.774;2024-03-25T00:44:29;98671.64;;;6.66;65.65
81997;BME280;71500;50.806;8.774;2024-03-25T00:47:06;98671.25;;;6.67;65.67
81997;BME280;71500;50.806;8.774;2024-03-25T00:49:43;98675.32;;;6.72;65.65
81997;BME280;71500;50.806;8.774;2024-03-25T00:52:20;98683.20;;;6.75;65.73
81997;BME280;71500;50.806;8.774;2024-03-25T00:54:58;98683.56;;;6.79;65.77
81997;BME280;71500;50.806;8.774;2024-03-25T00:57:35;98683.31;;;6.79;66.21
81997;BME280;71500;50.806;8.774;2024-03-25T01:00:14;98692.13;;;6.81;67.08
81997;BME280;71500;50.806;8.774;2024-03-25T01:03:13;98681.30;;;6.84;67.21
81997;BME280;71500;50.806;8.774;2024-03-25T01:05:51;98674.16;;;6.81;67.37
81997;BME280;71500;50.806;8.774;2024-03-25T01:08:28;98675.38;;;6.78;67.37
81997;BME280;71500;50.806;8.774;2024-03-25T01:11:06;98676.29;;;6.77;67.78
81997;BME280;71500;50.806;8.774;2024-03-25T01:13:43;98681.99;;;6.77;67.96
81997;BME280;71500;50.806;8.774;2024-03-25T01:16:20;98677.68;;;6.75;68.07
81997;BME280;71500;50.806;8.774;2024-03-25T01:18:58;98682.13;;;6.73;68.20
81997;BME280;71500;50.806;8.774;2024-03-25T01:21:35;98679.97;;;6.72;68.30
81997;BME280;71500;50.806;8.774;2024-03-25T01:24:12;98678.16;;;6.68;68.07
81997;BME280;71500;50.806;8.774;2024-03-25T01:26:50;98683.11;;;6.64;68.02
81997;BME280;71500;50.806;8.774;2024-03-25T01:29:28;98689.87;;;6.58;67.95
81997;BME280;71500;50.806;8.774;2024-03-25T01:32:06;98693.26;;;6.52;68.06
81997;BME280;71500;50.806;8.774;2024-03-25T01:34:42;98689.43;;;6.47;68.25
81997;BME280;71500;50.806;8.774;2024-03-25T01:37:19;98690.73;;;6.45;68.44
81997;BME280;71500;50.806;8.774;2024-03-25T01:39:57;98689.14;;;6.43;68.33
81997;BME280;71500;50.806;8.774;2024-03-25T01:42:34;98692.62;;;6.43;68.62
81997;BME280;71500;50.806;8.774;2024-03-25T01:45:12;98692.16;;;6.46;68.51
81997;BME280;71500;50.806;8.774;2024-03-25T01:47:49;98689.60;;;6.49;68.51
81997;BME280;71500;50.806;8.774;2024-03-25T01:50:28;98687.38;;;6.52;68.55
81997;BME280;71500;50.806;8.774;2024-03-25T01:53:06;98690.81;;;6.55;68.56
81997;BME280;71500;50.806;8.774;2024-03-25T01:55:44;98696.86;;;6.59;68.64
81997;BME280;71500;50.806;8.774;2024-03-25T01:58:44;98691.12;;;6.66;68.75
81997;BME280;71500;50.806;8.774;2024-03-25T02:01:22;98693.58;;;6.68;68.25
81997;BME280;71500;50.806;8.774;2024-03-25T02:04:00;98691.55;;;6.70;68.22
81997;BME280;71500;50.806;8.774;2024-03-25T02:06:38;98692.20;;;6.73;68.25
81997;BME280;71500;50.806;8.774;2024-03-25T02:09:17;98696.27;;;6.75;68.05
81997;BME280;71500;50.806;8.774;2024-03-25T02:11:56;98696.18;;;6.74;67.82
81997;BME280;71500;50.806;8.774;2024-03-25T02:14:33;98698.80;;;6.72;67.76
81997;BME280;71500;50.806;8.774;2024-03-25T02:17:11;98695.27;;;6.68;67.66
81997;BME280;71500;50.806;8.774;2024-03-25T02:19:48;98695.03;;;6.63;67.63
81997;BME280;71500;50.806;8.774;2024-03-25T02:22:26;98694.88;;;6.59;67.72
81997;BME280;71500;50.806;8.774;2024-03-25T02:25:06;98698.64;;;6.55;67.81
81997;BME280;71500;50.806;8.774;2024-03-25T02:27:44;98703.67;;;6.50;67.81
81997;BME280;71500;50.806;8.774;2024-03-25T02:30:21;98705.77;;;6.44;67.86
81997;BME280;71500;50.806;8.774;2024-03-25T02:32:58;98707.00;;;6.36;67.65
81997;BME280;71500;50.806;8.774;2024-03-25T02:35:37;98710.17;;;6.28;68.10
81997;BME280;71500;50.806;8.774;2024-03-25T02:38:15;98707.55;;;6.24;68.09
81997;BME280;71500;50.806;8.774;2024-03-25T02:40:53;98704.34;;;6.20;68.27
81997;BME280;71500;50.806;8.774;2024-03-25T02:43:31;98703.39;;;6.17;68.32
81997;BME280;71500;50.806;8.774;2024-03-25T02:46:08;98699.38;;;6.15;68.41
81997;BME280;71500;50.806;8.774;2024-03-25T02:48:48;98703.65;;;6.16;68.40
81997;BME280;71500;50.806;8.774;2024-03-25T02:51:25;98707.05;;;6.14;68.70
81997;BME280;71500;50.806;8.774;2024-03-25T02:54:03;98701.07;;;6.10;68.43
81997;BME280;71500;50.806;8.774;2024-03-25T02:56:40;98705.84;;;6.06;68.54
81997;BME280;71500;50.806;8.774;2024-03-25T02:59:17;98708.06;;;6.04;68.78
81997;BME280;71500;50.806;8.774;2024-03-25T03:01:55;98709.09;;;6.05;68.83
81997;BME280;71500;50.806;8.774;2024-03-25T03:04:32;98716.99;;;6.05;68.85
81997;BME280;71500;50.806;8.774;2024-03-25T03:07:09;98719.92;;;6.06;68.89
81997;BME280;71500;50.806;8.774;2024-03-25T03:09:47;98726.14;;;6.05;68.97
81997;BME280;71500;50.806;8.774;2024-03-25T03:12:24;98724.89;;;6.05;69.03
81997;BME280;71500;50.806;8.774;2024-03-25T03:15:02;98725.52;;;6.04;68.51
81997;BME280;71500;50.806;8.774;2024-03-25T03:17:39;98727.39;;;6.01;68.47
81997;BME280;71500;50.806;8.774;2024-03-25T03:20:17;98729.11;;;6.00;68.39
81997;BME280;71500;50.806;8.774;2024-03-25T03:22:54;98727.38;;;5.99;68.40
81997;BME280;71500;50.806;8.774;2024-03-25T03:25:31;98731.27;;;5.99;68.41
81997;BME280;71500;50.806;8.774;2024-03-25T03:28:09;98733.98;;;5.96;68.45
81997;BME280;71500;50.806;8.774;2024-03-25T03:30:46;98731.99;;;5.95;68.77
81997;BME280;71500;50.806;8.774;2024-03-25T03:33:24;98731.77;;;5.93;68.54
81997;BME280;71500;50.806;8.774;2024-03-25T03:36:01;98734.94;;;5.91;68.37
81997;BME280;71500;50.806;8.774;2024-03-25T03:38:38;98741.53;;;5.90;68.46
81997;BME280;71500;50.806;8.774;2024-03-25T03:41:16;98736.70;;;5.89;68.44
81997;BME280;71500;50.806;8.774;2024-03-25T03:43:53;98737.48;;;5.93;68.29
81997;BME280;71500;50.806;8.774;2024-03-25T03:46:30;98739.34;;;5.93;68.17
81997;BME280;71500;50.806;8.774;2024-03-25T03:49:07;98738.41;;;5.94;68.22
81997;BME280;71500;50.806;8.774;2024-03-25T03:51:45;98732.20;;;5.96;68.34
81997;BME280;71500;50.806;8.774;2024-03-25T03:54:22;98731.43;;;5.97;68.33
81997;BME280;71500;50.806;8.774;2024-03-25T03:56:59;98728.76;;;5.97;68.16
81997;BME280;71500;50.806;8.774;2024-03-25T03:59:36;98725.48;;;5.97;67.93
81997;BME280;71500;50.806;8.774;2024-03-25T04:02:13;98726.80;;;5.96;68.09
81997;BME280;71500;50.806;8.774;2024-03-25T04:04:51;98733.73;;;5.95;68.09
81997;BME280;71500;50.806;8.774;2024-03-25T04:07:28;98735.98;;;5.95;68.22
81997;BME280;71500;50.806;8.774;2024-03-25T04:10:07;98732.97;;;5.93;68.31
81997;BME280;71500;50.806;8.774;2024-03-25T04:12:45;98731.98;;;5.93;68.29
81997;BME280;71500;50.806;8.774;2024-03-25T04:15:22;98735.57;;;5.90;68.04
81997;BME280;71500;50.806;8.774;2024-03-25T04:18:00;98745.52;;;5.89;68.06
81997;BME280;71500;50.806;8.774;2024-03-25T04:20:41;98741.02;;;5.84;68.28
81997;BME280;71500;50.806;8.774;2024-03-25T04:23:19;98738.04;;;5.80;68.22
81997;BME280;71500;50.806;8.774;2024-03-25T04:26:00;98738.06;;;5.76;68.22
81997;BME280;71500;50.806;8.774;2024-03-25T04:28:40;98733.20;;;5.70;68.49
81997;BME280;71500;50.806;8.774;2024-03-25T04:31:18;98733.33;;;5.65;68.59
81997;BME280;71500;50.806;8.774;2024-03-25T04:33:55;98736.89;;;5.60;68.68
81997;BME280;71500;50.806;8.774;2024-03-25T04:36:33;98734.81;;;5.56;68.80
81997;BME280;71500;50.806;8.774;2024-03-25T04:39:10;98738.38;;;5.51;68.88
81997;BME280;71500;50.806;8.774;2024-03-25T04:41:48;98743.10;;;5.48;68.89
81997;BME280;71500;50.806;8.774;2024-03-25T04:44:25;98747.50;;;5.46;69.12
81997;BME280;71500;50.806;8.774;2024-03-25T04:47:04;98754.36;;;5.48;69.14
81997;BME280;71500;50.806;8.774;2024-03-25T04:49:42;98755.93;;;5.48;69.06
81997;BME280;71500;50.806;8.774;2024-03-25T04:52:20;98756.75;;;5.49;68.78
81997;BME280;71500;50.806;8.774;2024-03-25T04:54:58;98764.52;;;5.50;68.69
81997;BME280;71500;50.806;8.774;2024-03-25T04:57:36;98767.33;;;5.50;68.61
81997;BME280;71500;50.806;8.774;2024-03-25T05:00:15;98769.00;;;5.51;68.73
81997;BME280;71500;50.806;8.774;2024-03-25T05:02:52;98767.95;;;5.52;68.83
81997;BME280;71500;50.806;8.774;2024-03-25T05:05:30;98770.35;;;5.52;69.19
81997;BME280;71500;50.806;8.774;2024-03-25T05:08:08;98772.70;;;5.51;68.95
81997;BME280;71500;50.806;8.774;2024-03-25T05:10:45;98778.95;;;5.48;68.97
81997;BME280;71500;50.806;8.774;2024-03-25T05:13:22;98777.11;;;5.45;69.11
81997;BME280;71500;50.806;8.774;2024-03-25T05:16:00;98772.69;;;5.43;69.13
81997;BME280;71500;50.806;8.774;2024-03-25T05:18:37;98768.73;;;5.40;69.30
81997;BME280;71500;50.806;8.774;2024-03-25T05:21:14;98770.11;;;5.36;69.33
81997;BME280;71500;50.806;8.774;2024-03-25T05:23:52;98773.54;;;5.33;69.24
81997;BME280;71500;50.806;8.774;2024-03-25T05:26:29;98778.40;;;5.27;69.40
81997;BME280;71500;50.806;8.774;2024-03-25T05:29:06;98779.30;;;5.23;69.32
81997;BME280;71500;50.806;8.774;2024-03-25T05:31:58;98781.61;;;5.17;69.45
81997;BME280;71500;50.806;8.774;2024-03-25T05:34:37;98779.30;;;5.12;69.56
81997;BME280;71500;50.806;8.774;2024-03-25T05:37:14;98783.02;;;5.08;69.62
81997;BME280;71500;50.806;8.774;2024-03-25T05:39:52;98785.87;;;5.03;69.73
81997;BME280;71500;50.806;8.774;2024-03-25T05:42:30;98783.77;;;4.99;69.87
81997;BME280;71500;50.806;8.774;2024-03-25T05:45:08;98785.11;;;5.00;70.00
81997;BME280;71500;50.806;8.774;2024-03-25T05:47:46;98787.10;;;5.01;70.12
81997;BME280;71500;50.806;8.774;2024-03-25T05:50:24;98790.27;;;5.03;70.13
81997;BME280;71500;50.806;8.774;2024-03-25T05:53:01;98791.94;;;5.04;70.05
81997;BME280;71500;50.806;8.774;2024-03-25T05:55:39;98794.71;;;5.07;70.20
81997;BME280;71500;50.806;8.774;2024-03-25T05:58:16;98796.05;;;5.10;70.30
81997;BME280;71500;50.806;8.774;2024-03-25T06:00:54;98802.77;;;5.13;70.25
81997;BME280;71500;50.806;8.774;2024-03-25T06:03:31;98802.86;;;5.17;70.34
81997;BME280;71500;50.806;8.774;2024-03-25T06:06:09;98812.16;;;5.19;70.41
81997;BME280;71500;50.806;8.774;2024-03-25T06:08:46;98810.16;;;5.22;70.29
81997;BME280;71500;50.806;8.774;2024-03-25T06:11:25;98809.55;;;5.23;70.31
81997;BME280;71500;50.806;8.774;2024-03-25T06:14:02;98809.45;;;5.24;70.27
81997;BME280;71500;50.806;8.774;2024-03-25T06:16:39;98813.83;;;5.25;70.39
81997;BME280;71500;50.806;8.774;2024-03-25T06:19:17;98812.33;;;5.26;70.30
81997;BME280;71500;50.806;8.774;2024-03-25T06:21:54;98813.38;;;5.28;70.33
81997;BME280;71500;50.806;8.774;2024-03-25T06:24:32;98811.91;;;5.28;70.51
81997;BME280;71500;50.806;8.774;2024-03-25T06:27:09;98814.71;;;5.29;70.49
81997;BME280;71500;50.806;8.774;2024-03-25T06:29:47;98818.61;;;5.28;70.54
81997;BME280;71500;50.806;8.774;2024-03-25T06:32:44;98818.93;;;5.31;70.32
81997;BME280;71500;50.806;8.774;2024-03-25T06:35:35;98817.11;;;5.34;70.13
81997;BME280;71500;50.806;8.774;2024-03-25T06:38:12;98821.21;;;5.38;69.87
81997;BME280;71500;50.806;8.774;2024-03-25T06:40:50;98821.30;;;5.43;69.62
81997;BME280;71500;50.806;8.774;2024-03-25T06:43:29;98825.90;;;5.53;69.08
81997;BME280;71500;50.806;8.774;2024-03-25T06:46:06;98825.77;;;5.61;68.73
81997;BME280;71500;50.806;8.774;2024-03-25T06:48:44;98829.33;;;5.71;68.39
81997;BME280;71500;50.806;8.774;2024-03-25T06:51:21;98830.84;;;5.82;67.95
81997;BME280;71500;50.806;8.774;2024-03-25T06:54:02;98829.34;;;5.91;67.30
81997;BME280;71500;50.806;8.774;2024-03-25T06:56:39;98828.96;;;6.02;66.61
81997;BME280;71500;50.806;8.774;2024-03-25T06:59:16;98827.05;;;6.12;66.58
81997;BME280;71500;50.806;8.774;2024-03-25T07:01:55;98826.45;;;6.21;66.11
81997;BME280;71500;50.806;8.774;2024-03-25T07:04:32;98825.45;;;6.26;65.85
81997;BME280;71500;50.806;8.774;2024-03-25T07:07:10;98826.77;;;6.29;65.19
81997;BME280;71500;50.806;8.774;2024-03-25T07:09:48;98825.27;;;6.30;65.39
81997;BME280;71500;50.806;8.774;2024-03-25T07:12:25;98831.02;;;6.31;65.06
81997;BME280;71500;50.806;8.774;2024-03-25T07:15:03;98825.41;;;6.31;64.81
81997;BME280;71500;50.806;8.774;2024-03-25T07:17:41;98827.32;;;6.29;64.55
81997;BME280;71500;50.806;8.774;2024-03-25T07:20:18;98830.80;;;6.28;64.73
81997;BME280;71500;50.806;8.774;2024-03-25T07:22:57;98839.22;;;6.26;64.50
81997;BME280;71500;50.806;8.774;2024-03-25T07:25:35;98842.48;;;6.23;64.15
81997;BME280;71500;50.806;8.774;2024-03-25T07:28:14;98843.44;;;6.22;64.55
81997;BME280;71500;50.806;8.774;2024-03-25T07:30:52;98848.31;;;6.23;64.44
81997;BME280;71500;50.806;8.774;2024-03-25T07:33:30;98848.52;;;6.24;64.42
81997;BME280;71500;50.806;8.774;2024-03-25T07:36:08;98850.25;;;6.25;63.94
81997;BME280;71500;50.806;8.774;2024-03-25T07:38:45;98850.75;;;6.23;63.55
81997;BME280;71500;50.806;8.774;2024-03-25T07:41:23;98854.39;;;6.24;63.71
81997;BME280;71500;50.806;8.774;2024-03-25T07:44:00;98853.53;;;6.26;64.00
81997;BME280;71500;50.806;8.774;2024-03-25T07:46:39;98853.57;;;6.27;63.40
81997;BME280;71500;50.806;8.774;2024-03-25T07:49:16;98853.80;;;6.29;63.18
81997;BME280;71500;50.806;8.774;2024-03-25T07:51:53;98850.65;;;6.30;63.30
81997;BME280;71500;50.806;8.774;2024-03-25T07:54:30;98851.70;;;6.34;63.20
81997;BME280;71500;50.806;8.774;2024-03-25T07:57:08;98850.70;;;6.40;63.10
81997;BME280;71500;50.806;8.774;2024-03-25T07:59:46;98851.74;;;6.46;63.00
81997;BME280;71500;50.806;8.774;2024-03-25T08:02:23;98857.21;;;6.54;62.91
81997;BME280;71500;50.806;8.774;2024-03-25T08:05:01;98855.04;;;6.63;62.81
81997;BME280;71500;50.806;8.774;2024-03-25T08:07:38;98860.62;;;6.72;62.53
81997;BME280;71500;50.806;8.774;2024-03-25T08:10:16;98865.48;;;6.80;62.45
81997;BME280;71500;50.806;8.774;2024-03-25T08:12:53;98866.39;;;6.88;61.89
81997;BME280;71500;50.806;8.774;2024-03-25T08:15:30;98864.23;;;6.96;61.72
81997;BME280;71500;50.806;8.774;2024-03-25T08:18:08;98859.80;;;7.04;61.52
81997;BME280;71500;50.806;8.774;2024-03-25T08:20:45;98861.02;;;7.10;61.39
81997;BME280;71500;50.806;8.774;2024-03-25T08:23:23;98862.47;;;7.18;61.20
81997;BME280;71500;50.806;8.774;2024-03-25T08:26:00;98866.04;;;7.23;61.20
81997;BME280;71500;50.806;8.774;2024-03-25T08:28:37;98869.32;;;7.28;61.26
81997;BME280;71500;50.806;8.774;2024-03-25T08:31:15;98867.13;;;7.29;61.73
81997;BME280;71500;50.806;8.774;2024-03-25T08:33:53;98870.91;;;7.28;61.69
81997;BME280;71500;50.806;8.774;2024-03-25T08:36:30;98873.16;;;7.24;62.05
81997;BME280;71500;50.806;8.774;2024-03-25T08:39:07;98870.93;;;7.24;62.36
81997;BME280;71500;50.806;8.774;2024-03-25T08:41:46;98871.55;;;7.24;62.37
81997;BME280;71500;50.806;8.774;2024-03-25T08:44:23;98878.59;;;7.29;62.27
81997;BME280;71500;50.806;8.774;2024-03-25T08:47:01;98873.77;;;7.29;62.65
81997;BME280;71500;50.806;8.774;2024-03-25T08:49:38;98871.84;;;7.33;62.54
81997;BME280;71500;50.806;8.774;2024-03-25T08:52:16;98874.41;;;7.38;62.41
81997;BME280;71500;50.806;8.774;2024-03-25T08:54:53;98873.77;;;7.45;62.29
81997;BME280;71500;50.806;8.774;2024-03-25T08:57:31;98873.77;;;7.51;61.58
81997;BME280;71500;50.806;8.774;2024-03-25T09:00:10;98874.29;;;7.55;60.91
81997;BME280;71500;50.806;8.774;2024-03-25T09:02:48;98878.02;;;7.62;60.44
81997;BME280;71500;50.806;8.774;2024-03-25T09:05:25;98869.86;;;7.65;60.04
81997;BME280;71500;50.806;8.774;2024-03-25T09:08:03;98871.05;;;7.67;59.19
81997;BME280;71500;50.806;8.774;2024-03-25T09:10:42;98871.52;;;7.70;58.80
81997;BME280;71500;50.806;8.774;2024-03-25T09:13:29;98873.30;;;7.73;58.81
81997;BME280;71500;50.806;8.774;2024-03-25T09:16:07;98871.92;;;7.75;59.29
81997;BME280;71500;50.806;8.774;2024-03-25T09:18:45;98867.60;;;7.78;60.10
81997;BME280;71500;50.806;8.774;2024-03-25T09:21:22;98868.33;;;7.83;59.71
81997;BME280;71500;50.806;8.774;2024-03-25T09:24:01;98866.67;;;7.88;59.79
81997;BME280;71500;50.806;8.774;2024-03-25T09:26:38;98866.81;;;7.90;59.92
81997;BME280;71500;50.806;8.774;2024-03-25T09:29:16;98868.91;;;7.92;60.05
81997;BME280;71500;50.806;8.774;2024-03-25T09:31:53;98864.30;;;7.92;59.85
81997;BME280;71500;50.806;8.774;2024-03-25T09:34:30;98864.16;;;7.92;59.92
81997;BME280;71500;50.806;8.774;2024-03-25T09:37:08;98863.38;;;7.92;59.96
81997;BME280;71500;50.806;8.774;2024-03-25T09:39:46;98859.95;;;7.95;59.78
81997;BME280;71500;50.806;8.774;2024-03-25T09:42:28;98855.57;;;7.97;59.57
81997;BME280;71500;50.806;8.774;2024-03-25T09:45:12;98861.52;;;8.01;59.65
81997;BME280;71500;50.806;8.774;2024-03-25T09:47:47;98861.73;;;8.04;59.58
81997;BME280;71500;50.806;8.774;2024-03-25T09:50:25;98863.67;;;8.08;59.23
81997;BME280;71500;50.806;8.774;2024-03-25T09:53:03;98865.36;;;8.11;58.87
81997;BME280;71500;50.806;8.774;2024-03-25T09:55:40;98862.88;;;8.11;58.89
81997;BME280;71500;50.806;8.774;2024-03-25T09:58:20;98865.30;;;8.11;59.02
81997;BME280;71500;50.806;8.774;2024-03-25T10:00:58;98861.64;;;8.11;59.28
81997;BME280;71500;50.806;8.774;2024-03-25T10:03:35;98857.63;;;8.12;59.02
81997;BME280;71500;50.806;8.774;2024-03-25T10:06:13;98859.18;;;8.16;58.95
81997;BME280;71500;50.806;8.774;2024-03-25T10:08:52;98857.99;;;8.21;58.75
81997;BME280;71500;50.806;8.774;2024-03-25T10:11:31;98863.02;;;8.26;58.84
81997;BME280;71500;50.806;8.774;2024-03-25T10:14:09;98861.17;;;8.31;58.40
81997;BME280;71500;50.806;8.774;2024-03-25T10:16:47;98859.52;;;8.41;58.38
81997;BME280;71500;50.806;8.774;2024-03-25T10:19:25;98849.60;;;8.51;58.30
81997;BME280;71500;50.806;8.774;2024-03-25T10:22:10;98848.14;;;8.60;57.39
81997;BME280;71500;50.806;8.774;2024-03-25T10:24:47;98848.77;;;8.66;56.50
81997;BME280;71500;50.806;8.774;2024-03-25T10:27:25;98845.46;;;8.71;56.34
81997;BME280;71500;50.806;8.774;2024-03-25T10:30:03;98842.58;;;8.74;55.82
81997;BME280;71500;50.806;8.774;2024-03-25T10:32:39;98845.80;;;8.75;55.62
81997;BME280;71500;50.806;8.774;2024-03-25T10:35:17;98843.27;;;8.79;55.70
81997;BME280;71500;50.806;8.774;2024-03-25T10:37:58;98835.89;;;8.86;55.48
81997;BME280;71500;50.806;8.774;2024-03-25T10:40:37;98831.95;;;8.86;55.43
81997;BME280;71500;50.806;8.774;2024-03-25T10:43:13;98830.41;;;8.87;55.61
81997;BME280;71500;50.806;8.774;2024-03-25T10:45:55;98826.77;;;8.94;55.67
81997;BME280;71500;50.806;8.774;2024-03-25T10:48:38;98828.10;;;9.00;54.50
81997;BME280;71500;50.806;8.774;2024-03-25T10:51:16;98825.55;;;9.04;53.84
81997;BME280;71500;50.806;8.774;2024-03-25T10:53:55;98823.05;;;9.06;54.02
81997;BME280;71500;50.806;8.774;2024-03-25T10:56:32;98819.60;;;9.09;53.47
81997;BME280;71500;50.806;8.774;2024-03-25T10:59:11;98812.07;;;9.12;53.41
81997;BME280;71500;50.806;8.774;2024-03-25T11:01:49;98811.30;;;9.14;53.31
81997;BME280;71500;50.806;8.774;2024-03-25T11:04:27;98803.19;;;9.14;52.93
81997;BME280;71500;50.806;8.774;2024-03-25T11:07:12;98803.04;;;9.12;52.74
81997;BME280;71500;50.806;8.774;2024-03-25T11:09:49;98799.13;;;9.10;52.54
81997;BME280;71500;50.806;8.774;2024-03-25T11:12:34;98791.17;;;9.08;51.93
81997;BME280;71500;50.806;8.774;2024-03-25T11:15:12;98787.59;;;9.09;52.47
81997;BME280;71500;50.806;8.774;2024-03-25T11:17:53;98789.32;;;9.13;53.04
81997;BME280;71500;50.806;8.774;2024-03-25T11:20:30;98780.13;;;9.16;52.67
81997;BME280;71500;50.806;8.774;2024-03-25T11:23:10;98777.92;;;9.19;52.37
81997;BME280;71500;50.806;8.774;2024-03-25T11:25:57;98775.54;;;9.21;52.34
81997;BME280;71500;50.806;8.774;2024-03-25T11:28:35;98774.55;;;9.22;53.14
81997;BME280;71500;50.806;8.774;2024-03-25T11:31:12;98777.81;;;9.23;52.50
81997;BME280;71500;50.806;8.774;2024-03-25T11:33:49;98765.48;;;9.26;52.06
81997;BME280;71500;50.806;8.774;2024-03-25T11:36:27;98759.29;;;9.31;52.49
81997;BME280;71500;50.806;8.774;2024-03-25T11:39:06;98755.86;;;9.46;52.72
81997;BME280;71500;50.806;8.774;2024-03-25T11:41:45;98752.67;;;9.59;51.46
81997;BME280;71500;50.806;8.774;2024-03-25T11:44:22;98754.15;;;9.68;51.16
81997;BME280;71500;50.806;8.774;2024-03-25T11:47:00;98749.48;;;9.77;50.91
81997;BME280;71500;50.806;8.774;2024-03-25T11:49:41;98740.21;;;9.86;50.71
81997;BME280;71500;50.806;8.774;2024-03-25T11:52:19;98734.33;;;9.97;51.08
81997;BME280;71500;50.806;8.774;2024-03-25T11:54:59;98729.98;;;10.08;50.60
81997;BME280;71500;50.806;8.774;2024-03-25T11:57:37;98731.09;;;10.21;49.95
81997;BME280;71500;50.806;8.774;2024-03-25T12:00:15;98722.36;;;10.30;49.65
81997;BME280;71500;50.806;8.774;2024-03-25T12:02:54;98721.71;;;10.38;49.31
81997;BME280;71500;50.806;8.774;2024-03-25T12:05:32;98716.83;;;10.39;48.64
81997;BME280;71500;50.806;8.774;2024-03-25T12:08:12;98711.84;;;10.32;48.61
81997;BME280;71500;50.806;8.774;2024-03-25T12:10:49;98707.36;;;10.26;48.82
81997;BME280;71500;50.806;8.774;2024-03-25T12:13:40;98703.25;;;10.26;48.70
81997;BME280;71500;50.806;8.774;2024-03-25T12:16:18;98706.77;;;10.32;49.12
81997;BME280;71500;50.806;8.774;2024-03-25T12:18:55;98702.60;;;10.41;48.57
81997;BME280;71500;50.806;8.774;2024-03-25T12:21:33;98699.10;;;10.50;48.71
81997;BME280;71500;50.806;8.774;2024-03-25T12:24:11;98697.40;;;10.58;49.38
81997;BME280;71500;50.806;8.774;2024-03-25T12:26:48;98691.21;;;10.68;49.19
81997;BME280;71500;50.806;8.774;2024-03-25T12:29:26;98687.27;;;10.79;48.92
81997;BME280;71500;50.806;8.774;2024-03-25T12:32:03;98679.27;;;10.91;49.18
81997;BME280;71500;50.806;8.774;2024-03-25T12:34:41;98672.20;;;11.01;49.10
81997;BME280;71500;50.806;8.774;2024-03-25T12:37:19;98675.50;;;11.07;47.98
81997;BME280;71500;50.806;8.774;2024-03-25T12:39:57;98669.84;;;11.11;47.83
81997;BME280;71500;50.806;8.774;2024-03-25T12:42:33;98666.61;;;11.14;48.23
81997;BME280;71500;50.806;8.774;2024-03-25T12:45:11;98665.75;;;11.17;47.70
81997;BME280;71500;50.806;8.774;2024-03-25T12:47:48;98660.48;;;11.18;47.93
81997;BME280;71500;50.806;8.774;2024-03-25T12:50:25;98659.79;;;11.18;47.01
81997;BME280;71500;50.806;8.774;2024-03-25T12:53:03;98656.25;;;11.18;46.64
81997;BME280;71500;50.806;8.774;2024-03-25T12:55:40;98657.95;;;11.18;47.70
81997;BME280;71500;50.806;8.774;2024-03-25T12:58:17;98655.78;;;11.20;47.16
81997;BME280;71500;50.806;8.774;2024-03-25T13:00:55;98656.19;;;11.22;46.04
81997;BME280;71500;50.806;8.774;2024-03-25T13:03:32;98648.62;;;11.18;45.70
81997;BME280;71500;50.806;8.774;2024-03-25T13:06:09;98645.98;;;11.12;47.20
81997;BME280;71500;50.806;8.774;2024-03-25T13:08:47;98644.72;;;11.08;47.32
81997;BME280;71500;50.806;8.774;2024-03-25T13:11:24;98643.30;;;11.08;47.21
81997;BME280;71500;50.806;8.774;2024-03-25T13:14:02;98643.22;;;11.12;47.00
81997;BME280;71500;50.806;8.774;2024-03-25T13:16:41;98636.20;;;11.18;46.74
81997;BME280;71500;50.806;8.774;2024-03-25T13:19:18;98625.34;;;11.21;46.30
81997;BME280;71500;50.806;8.774;2024-03-25T13:21:56;98624.34;;;11.27;46.48
81997;BME280;71500;50.806;8.774;2024-03-25T13:24:33;98621.59;;;11.34;46.37
81997;BME280;71500;50.806;8.774;2024-03-25T13:27:10;98612.46;;;11.37;46.20
81997;BME280;71500;50.806;8.774;2024-03-25T13:29:47;98612.23;;;11.40;46.02
81997;BME280;71500;50.806;8.774;2024-03-25T13:32:27;98606.63;;;11.39;45.98
81997;BME280;71500;50.806;8.774;2024-03-25T13:35:04;98598.46;;;11.39;45.51
81997;BME280;71500;50.806;8.774;2024-03-25T13:37:41;98598.60;;;11.38;44.96
81997;BME280;71500;50.806;8.774;2024-03-25T13:40:19;98597.02;;;11.37;45.31
81997;BME280;71500;50.806;8.774;2024-03-25T13:42:56;98597.47;;;11.38;45.47
81997;BME280;71500;50.806;8.774;2024-03-25T13:45:35;98590.42;;;11.41;45.71
81997;BME280;71500;50.806;8.774;2024-03-25T13:48:13;98588.63;;;11.42;45.14
81997;BME280;71500;50.806;8.774;2024-03-25T13:50:52;98583.46;;;11.44;44.52
81997;BME280;71500;50.806;8.774;2024-03-25T13:53:30;98575.65;;;11.47;44.40
81997;BME280;71500;50.806;8.774;2024-03-25T13:56:08;98572.11;;;11.50;44.77
81997;BME280;71500;50.806;8.774;2024-03-25T13:58:45;98571.64;;;11.53;43.99
81997;BME280;71500;50.806;8.774;2024-03-25T14:01:23;98567.70;;;11.55;43.88
81997;BME280;71500;50.806;8.774;2024-03-25T14:04:01;98566.77;;;11.57;43.74
81997;BME280;71500;50.806;8.774;2024-03-25T14:06:38;98567.10;;;11.56;43.30
81997;BME280;71500;50.806;8.774;2024-03-25T14:09:25;98561.77;;;11.52;44.33